Flight Track Log - Related Links

Times and Time Zones

All times are in EST time to prevent confusion due to time zone crossing. See the VH-ZFY flight status page for this flight to view local times or setup timezone preferences in your user account.

Time Position Orientation Groundspeed Altitude Reporting Facility
EST Latitude Longitude Course Direction KTS MPH feet Rate Location/Type
Thu 10:55:25 PM -33.9293 151.0021 24° Northeast 66 76 700  Level Aus ATC (RADAR)
Thu 10:56:10 PM -33.9177 151.0083 24° Northeast 90 104 1,100 600 Climbing Aus ATC (RADAR)
Thu 10:56:45 PM -33.9094 150.9914 300° West 95 109 1,500 600 Climbing Aus ATC (RADAR)
Thu 10:57:30 PM -33.8987 150.9713 303° West 92 106 1,900 514 Climbing Aus ATC (RADAR)
Thu 10:57:55 PM -33.8928 150.9599 302° West 92 106 2,100 571 Climbing Aus ATC (RADAR)
Thu 10:59:15 PM -33.8752 150.9226 300° West 91 105 2,900 577 Climbing Aus ATC (RADAR)
Thu 10:59:39 PM -33.8807 150.9121 238° Southwest 89 102 3,100 333 Climbing Aus ATC (RADAR)
Thu 11:00:09 PM -33.8898 150.9088 196° South 83 96 3,200 185 Climbing Aus ATC (RADAR)
Thu 11:00:44 PM -33.9071 150.9077 183° South 97 112 3,300 86 Climbing Aus ATC (RADAR)
Thu 11:01:19 PM -33.9231 150.9049 188° South 100 115 3,300 -80 Level Aus ATC (RADAR)
Thu 11:01:59 PM -33.9422 150.9029 185° South 105 121 3,200 -67 Descending Aus ATC (RADAR)
Thu 11:02:49 PM -33.9657 150.8979 190° South 104 120 3,200  Level Aus ATC (RADAR)
Thu 11:03:04 PM -33.9728 150.8963 190° South 104 120 3,200 600 Level Aus ATC (RADAR)
Thu 11:04:09 PM -33.9984 150.8887 194° South 86 99 4,000 632 Climbing Aus ATC (RADAR)
Thu 11:04:39 PM -34.0097 150.8829 203° Southwest 88 101 4,200 200 Climbing Aus ATC (RADAR)
Thu 11:05:09 PM -34.0231 150.8761 203° Southwest 103 119 4,200  Level Aus ATC (RADAR)
Thu 11:05:39 PM -34.0372 150.8701 199° South 106 122 4,200  Level Aus ATC (RADAR)
Thu 11:06:29 PM -34.0608 150.8621 196° South 105 121 4,200  Level Aus ATC (RADAR)
Thu 11:07:04 PM -34.0769 150.8574 194° South 103 119 4,200  Level Aus ATC (RADAR)
Thu 11:07:48 PM -34.0985 150.8514 193° South 108 124 4,200 80 Level Aus ATC (RADAR)
Thu 11:08:19 PM -34.1135 150.8447 200° South 113 130 4,300 75 Climbing Aus ATC (RADAR)
Thu 11:09:08 PM -34.1376 150.8337 201° Southwest 111 128 4,300 -160 Level Aus ATC (RADAR)
Thu 11:09:34 PM -34.1501 150.8282 200° South 114 131 4,100  Descending Aus ATC (RADAR)
Thu 11:09:58 PM -34.1622 150.8232 199° South 111 128 4,300 188 Climbing Aus ATC (RADAR)
Thu 11:10:38 PM -34.1815 150.8161 197° South 108 124 4,300  Level Aus ATC (RADAR)
Thu 11:11:21 PM -34.2004 150.8094 196° South 106 122 4,300 -169 Level Aus ATC (RADAR)
Thu 11:11:49 PM -34.2140 150.8034 200° South 105 121 4,100 -94 Descending Aus ATC (RADAR)
Thu 11:12:25 PM -34.2307 150.7958 201° Southwest 109 125 4,200 81 Climbing Aus ATC (RADAR)
Thu 11:13:03 PM -34.2488 150.7887 198° South 103 119 4,200  Level Aus ATC (RADAR)
Thu 11:13:35 PM -34.2623 150.7840 196° South 102 117 4,200  Level Aus ATC (RADAR)
Thu 11:14:48 PM -34.2957 150.7705 199° South 100 115 4,200  Level Aus ATC (RADAR)
Thu 11:15:03 PM -34.3021 150.7677 200° South 98 113 4,200  Level Aus ATC (RADAR)
Thu 11:15:38 PM -34.3174 150.7622 196° South 98 113 4,200  Level Aus ATC (RADAR)
Thu 11:16:38 PM -34.3131 150.7389 283° West 97 112 4,200 -141 Level Aus ATC (RADAR)
Thu 11:17:03 PM -34.3008 150.7386 359° North 103 119 4,000  Descending Aus ATC (RADAR)
Thu 11:17:53 PM -34.2767 150.7345 352° North 106 122 4,200 188 Climbing Aus ATC (RADAR)
Thu 11:18:07 PM -34.2697 150.7357 North 102 117 4,200  Level Aus ATC (RADAR)
Thu 11:18:47 PM -34.2701 150.7552 91° East 100 115 4,200 -103 Level Aus ATC (RADAR)
Thu 11:20:03 PM -34.3041 150.7617 171° South 98 113 4,000 -238 Descending Aus ATC (RADAR)
Thu 11:20:28 PM -34.3148 150.7628 175° South 94 108 3,800 -94 Descending Aus ATC (RADAR)
Thu 11:21:07 PM -34.3319 150.7639 177° South 92 106 3,900 71 Climbing Aus ATC (RADAR)
Thu 11:21:52 PM -34.3519 150.7659 175° South 97 112 3,900  Level Aus ATC (RADAR)
Thu 11:22:27 PM -34.3674 150.7663 179° South 96 110 3,900  Level Aus ATC (RADAR)
Thu 11:23:13 PM -34.3864 150.7699 171° South 93 107 3,900  Level Aus ATC (RADAR)
Thu 11:23:37 PM -34.3964 150.7706 176° South 90 104 3,900 -435 Level Aus ATC (RADAR)
Thu 11:25:17 PM -34.4366 150.7740 176° South 92 106 3,000 -524 Descending Aus ATC (RADAR)
Thu 11:25:43 PM -34.4473 150.7747 177° South 93 107 2,800 -738 Descending Aus ATC (RADAR)
Thu 11:26:22 PM -34.4651 150.7759 177° South 100 115 2,200 -730 Descending Aus ATC (RADAR)
Thu 11:26:57 PM -34.4806 150.7775 175° South 96 110 1,900 -545 Descending Aus ATC (RADAR)
Thu 11:27:17 PM -34.4891 150.7782 176° South 93 107 1,700 162 Descending Aus ATC (RADAR)
Thu 11:30:10 PM -34.4391 150.7455 145° Southeast 5,000 226 Climbing Aus ATC (Calculated)
Thu 11:30:35 PM -34.4391 150.7455 145° Southeast 5,000 -2,182 Level Aus ATC (Calculated)
Thu 11:31:16 PM -34.5392 150.8294 176° South 90 104 2,600 -1,326 Descending Aus ATC (RADAR)
Thu 11:32:01 PM -34.5373 150.8494 83° East 80 92 3,100 600 Climbing Aus ATC (RADAR)
Thu 11:32:36 PM -34.5360 150.8648 84° East 79 91 3,400 565 Climbing Aus ATC (RADAR)
Thu 11:33:26 PM -34.5322 150.8864 78° East 78 90 3,900 565 Climbing Aus ATC (RADAR)
Thu 11:34:01 PM -34.5258 150.8984 57° Northeast 78 90 4,200 218 Climbing Aus ATC (RADAR)
Thu 11:35:16 PM -34.4944 150.8868 343° North 100 115 4,300 67 Climbing Aus ATC (RADAR)
Thu 11:35:31 PM -34.4873 150.8847 347° North 101 116 4,300 -120 Level Aus ATC (RADAR)
Thu 11:36:06 PM -34.4715 150.8766 337° Northwest 105 121 4,200 -75 Descending Aus ATC (RADAR)
Thu 11:36:51 PM -34.4514 150.8680 341° North 100 115 4,200  Level Aus ATC (RADAR)
Thu 11:37:31 PM -34.4334 150.8614 343° North 100 115 4,200  Level Aus ATC (RADAR)
Thu 11:38:16 PM -34.4141 150.8523 339° North 100 115 4,200  Level Aus ATC (RADAR)
Thu 11:38:41 PM -34.4029 150.8458 334° Northwest 104 120 4,200  Level Aus ATC (RADAR)
Thu 11:39:16 PM -34.3878 150.8401 343° North 96 110 4,200 -57 Level Aus ATC (RADAR)
Thu 11:40:26 PM -34.3551 150.8240 338° Northwest 110 127 4,100  Descending Aus ATC (RADAR)
Thu 11:40:50 PM -34.3429 150.8197 344° North 110 127 4,200  Climbing Aus ATC (RADAR)
Thu 11:41:25 PM -34.3258 150.8091 333° Northwest 116 133 4,100 -71 Descending Aus ATC (RADAR)
Thu 11:42:15 PM -34.3015 150.7942 333° Northwest 115 132 4,100  Level Aus ATC (RADAR)
Thu 11:42:45 PM -34.2878 150.7844 329° Northwest 114 131 4,100  Level Aus ATC (RADAR)
Thu 11:43:20 PM -34.2714 150.7758 337° Northwest 108 124 4,100  Level Aus ATC (RADAR)
Thu 11:43:55 PM -34.2537 150.7742 356° North 110 127 4,100  Level Aus ATC (RADAR)
Thu 11:45:20 PM -34.2140 150.7616 345° North 105 121 4,100  Level Aus ATC (RADAR)
Thu 11:45:55 PM -34.1973 150.7537 339° North 109 125 4,100 -100 Level Aus ATC (RADAR)
Thu 11:46:20 PM -34.1857 150.7480 338° Northwest 109 125 4,000 -400 Descending Aus ATC (RADAR)
Thu 11:46:55 PM -34.1676 150.7418 344° North 116 133 3,700 -400 Descending Aus ATC (RADAR)
Thu 11:47:35 PM -34.1486 150.7320 337° Northwest 109 125 3,500 -160 Descending Aus ATC (RADAR)
Thu 11:48:10 PM -34.1326 150.7242 338° Northwest 107 123 3,500  Level Aus ATC (RADAR)
Thu 11:49:00 PM -34.1093 150.7166 345° North 101 116 3,500  Level Aus ATC (RADAR)
Thu 11:49:20 PM -34.1008 150.7119 335° Northwest 101 116 3,500 -63 Level Aus ATC (RADAR)
Thu 11:50:35 PM -34.0651 150.6959 340° North 109 125 3,400 -242 Descending Aus ATC (RADAR)
Thu 11:50:59 PM -34.0529 150.7003 17° North 106 122 3,100 -682 Descending Aus ATC (RADAR)
Thu 11:51:19 PM -34.0465 150.7082 45° Northeast 99 114 2,900 -600 Descending Aus ATC (RADAR)
Thu 11:53:00 PM -34.0309 150.7441 62° Northeast  Level FlightAware Approximate
Fri 12:00:00 AM -33.9659 150.8932 62° Northeast  Level FlightAware Approximate
Fri 12:01:00 AM -33.9566 150.9145 62° Northeast  Level FlightAware Approximate
Fri 12:02:00 AM -33.9473 150.9358 62° Northeast  Level FlightAware Approximate
Fri 12:03:00 AM -33.9380 150.9571 62° Northeast  Level FlightAware Approximate
Fri 12:04:00 AM -33.9288 150.9784 90° East  Level Estimated
Fri 12:05:00 AM -33.9244 150.9884 90° East  Level FlightAware Approximate
Fri 12:06:00 AM -33.9244 150.9883 90° East  Level Estimated
Fri 12:07:00 AM -33.9244 150.9883 90° East  Level Estimated
Fri 12:08:00 AM -33.9244 150.9883 90° East  Level Estimated
Fri 12:09:00 AM -33.9244 150.9883 90° East  Level Estimated
Fri 12:10:00 AM -33.9244 150.9883 90° East  Level Estimated
Fri 12:11:00 AM -33.9244 150.9883 90° East  Level Estimated
Fri 12:12:00 AM -33.9244 150.9883 90° East  Level Estimated
Fri 12:13:00 AM -33.9244 150.9883 90° East  Level Estimated
Fri 12:14:00 AM -33.9244 150.9883 90° East  Level Estimated
Fri 12:15:00 AM -33.9244 150.9883 90° East  Level Estimated
Fri 12:16:00 AM -33.9244 150.9883 90° East  Level Estimated
Fri 12:17:00 AM -33.9244 150.9883 90° East  Level Estimated
Fri 12:18:00 AM -33.9244 150.9883 90° East  Level Estimated
Fri 12:19:00 AM -33.9244 150.9883 90° East  Level Estimated
Fri 12:20:00 AM -33.9244 150.9883 90° East  Level Estimated
Fri 12:21:00 AM -33.9244 150.9883 90° East  Level Estimated
Fri 12:22:00 AM -33.9244 150.9883 90° East  Level Estimated
Fri 12:23:00 AM -33.9244 150.9883 90° East  Level Estimated
Fri 12:24:00 AM -33.9244 150.9883 90° East  Level Estimated
Fri 12:25:00 AM -33.9244 150.9883 90° East  Level Estimated
Fri 12:26:00 AM -33.9244 150.9883 90° East  Level Estimated
Fri 12:27:00 AM -33.9244 150.9883 90° East  Level Estimated
Fri 12:28:00 AM -33.9244 150.9883 90° East  Level Estimated
Fri 12:29:00 AM -33.9244 150.9883 90° East  Level Estimated
Fri 12:30:00 AM -33.9244 150.9883 90° East  Level Estimated
Fri 12:31:00 AM -33.9244 150.9883 90° East  Level Estimated
Fri 12:32:00 AM -33.9244 150.9883 90° East  Level Estimated
Fri 12:33:00 AM -33.9244 150.9883 90° East  Level Estimated
Fri 12:34:00 AM -33.9244 150.9883 90° East  Level Estimated
Fri 12:35:00 AM -33.9244 150.9883 90° East  Level Estimated
Fri 12:36:00 AM -33.9244 150.9883 90° East  Level Estimated
Fri 12:37:00 AM -33.9244 150.9883 90° East  Level Estimated
Fri 12:38:00 AM -33.9244 150.9883 90° East  Level Estimated
Fri 12:39:00 AM -33.9244 150.9883 90° East  Level Estimated
Fri 12:40:00 AM -33.9244 150.9883 90° East  Level Estimated
Fri 12:41:00 AM -33.9244 150.9883 90° East  Level Estimated
Fri 12:42:00 AM -33.9244 150.9883 90° East  Level Estimated

Login

Don't have an account? Register now (free) for customized features, flight alerts, and more!